tititudorancea.com
Station Historical Data
Daily Summary for June 11, 2018 Units:  Metric    English   Both
« Previous Day
Next Day »
Daily Weekly Monthly Yearly Custom
  High: Low: Average:
Temperature: -17.8 °C 4.2 °C 10.3 °C
Dew Point: -17.8 °C 3.3 °C 7.9 °C
Humidity: Humidity % 74 % 85 %
Wind Speed: 0 km/h 0 km/h 19 km/h
Wind Gust: 0 km/h - -
Wind:- - ENE
Pressure: 0 hPa 1007 hPa -
Precipitation: 13.72 mm    
Historical Graphs
 
 
Ararat weather Find more about Weather in Ararat, AU


 



 


Tabular Data for June 11, 2018
Time Temperature Dew Point Pressure Wind Wind Speed Wind Gust Humidity Rainfall Rate (Hourly)
-17.8 °C -17.8 °C 0 hPa Calm     Humidity % 0 mm
00:04 4.7 °C 3.8 °C 1023.6 hPa NNW 1.9 km/h   94 % 0 mm
00:09 4.4 °C 3.5 °C 1023.6 hPa Calm     94 % 0 mm
00:14 4.2 °C 3.3 °C 1023.6 hPa Calm   0.2 km/h 94 % 0 mm
00:19 4.2 °C 3.4 °C 1023.6 hPa NNW 3.7 km/h 1.8 km/h 95 % 0 mm
00:24 4.4 °C 3.7 °C 1023.2 hPa NNW 3.7 km/h 1.8 km/h 95 % 0 mm
00:29 4.4 °C 3.7 °C 1023.2 hPa NNW 3.7 km/h 2.6 km/h 95 % 0 mm
00:34 4.5 °C 3.8 °C 1022.9 hPa NNW 3.7 km/h 3.1 km/h 95 % 0 mm
00:39 4.8 °C 4.1 °C 1022.9 hPa North 3.7 km/h 3.1 km/h 95 % 0 mm
00:44 5.1 °C 4.3 °C 1022.9 hPa North 5.6 km/h 3.5 km/h 95 % 0 mm
00:49 5.3 °C 4.6 °C 1022.9 hPa NNW 3.7 km/h 2.3 km/h 95 % 0 mm
00:54 5.6 °C 4.9 °C 1022.9 hPa Calm     96 % 0 mm
00:59 5.7 °C 5 °C 1022.6 hPa Calm     95 % 0 mm
01:04 5.7 °C 4.9 °C 1022.9 hPa NNW 3.7 km/h 2.9 km/h 95 % 0 mm
01:09 5.5 °C 4.8 °C 1022.6 hPa NNW 3.7 km/h 0.8 km/h 95 % 0 mm
01:14 5.4 °C 4.7 °C 1022.6 hPa Calm     95 % 0 mm
01:19 5.1 °C 4.2 °C 1022.6 hPa North 3.2 km/h 2.6 km/h 94 % 0 mm
01:24 5.1 °C 4.3 °C 1022.6 hPa NNW 5.6 km/h 2.1 km/h 95 % 0 mm
01:29 5.2 °C 4.5 °C 1022.2 hPa NNW 1.9 km/h   95 % 0 mm
01:34 5 °C 4.1 °C 1022.2 hPa Calm     94 % 0 mm
01:39 4.9 °C 4.2 °C 1022.2 hPa Calm     95 % 0 mm
01:44 4.8 °C 4.1 °C 1022.2 hPa Calm     95 % 0 mm
01:49 4.9 °C 4.9 °C 1022.2 hPa Calm     100 % 0 mm
01:54 5.2 °C 4.6 °C 1022.2 hPa Calm     96 % 0 mm
01:59 5.3 °C 4.6 °C 1022.2 hPa NNW 3.7 km/h   95 % 0 mm
02:04 5.6 °C 5 °C 1022.2 hPa NNW 1.6 km/h 0.2 km/h 96 % 0 mm
02:09 5.9 °C 5.3 °C 1022.2 hPa NNW 5.6 km/h 4 km/h 96 % 0 mm
02:14 6.3 °C 5.7 °C 1021.9 hPa NNW 5.6 km/h 4.8 km/h 96 % 0 mm
02:19 6.3 °C 5.7 °C 1021.9 hPa NNW 5.6 km/h 2.9 km/h 96 % 0 mm
02:24 6.4 °C 5.8 °C 1021.9 hPa NNW 5.6 km/h 2.3 km/h 96 % 0 mm
02:29 6.5 °C 5.9 °C 1021.9 hPa North 5.6 km/h 3.4 km/h 96 % 0 mm
02:34 6.8 °C 6.2 °C 1021.6 hPa North 5.6 km/h 2.1 km/h 96 % 0 mm
02:39 6.9 °C 6.3 °C 1021.6 hPa North 1.9 km/h 0.3 km/h 96 % 0 mm
02:44 7 °C 6.4 °C 1021.6 hPa NNW 1.9 km/h   96 % 0 mm
02:49 7.1 °C 6.4 °C 1021.2 hPa Calm     96 % 0 mm
02:54 7.1 °C 6.4 °C 1021.2 hPa Calm     96 % 0 mm
02:59 7.2 °C 6.6 °C 1021.2 hPa NNW 9.3 km/h 4 km/h 96 % 0 mm
03:04 7.8 °C 7.3 °C 1021.2 hPa NNW 9.3 km/h 5 km/h 97 % 0 mm
03:09 8.1 °C 7.5 °C 1021.2 hPa North 11.1 km/h 6.9 km/h 96 % 0 mm
03:14 8.3 °C 7.7 °C 1021.2 hPa North 7.4 km/h 6 km/h 96 % 0 mm
03:19 8.4 °C 7.8 °C 1021.2 hPa North 7.4 km/h 5.1 km/h 96 % 0 mm
03:24 8.5 °C 7.9 °C 1021.2 hPa North 7.4 km/h 1.1 km/h 96 % 0 mm
03:29 8.6 °C 7.9 °C 1021.2 hPa North 11.1 km/h 5.1 km/h 96 % 0 mm
03:34 8.6 °C 8 °C 1021.2 hPa North 6.4 km/h 1.4 km/h 96 % 0 mm
03:39 8.7 °C 8.1 °C 1020.9 hPa North 5.6 km/h 2.3 km/h 96 % 0 mm
03:44 8.7 °C 7.9 °C 1020.9 hPa North 6.4 km/h 4.2 km/h 95 % 0 mm
03:49 8.8 °C 8.2 °C 1020.9 hPa North 7.4 km/h 5.8 km/h 96 % 0 mm
03:54 8.9 °C 8.3 °C 1020.9 hPa NE 18.5 km/h 6 km/h 96 % 0 mm
03:59 9.1 °C 8.5 °C 1020.9 hPa NNE 16.7 km/h 10.5 km/h 96 % 0 mm
04:04 9.3 °C 8.6 °C 1020.9 hPa NNE 18.5 km/h 10.5 km/h 95 % 0 mm
04:09 9.4 °C 8.7 °C 1020.5 hPa NNE 11.3 km/h 11.4 km/h 95 % 0 mm
04:14 9.6 °C 8.8 °C 1020.5 hPa NNE 20.4 km/h 11.1 km/h 95 % 0 mm
04:19 9.8 °C 8.8 °C 1020.5 hPa NNE 18.5 km/h 10 km/h 94 % 0 mm
04:24 9.9 °C 8.8 °C 1020.5 hPa NNE 24.1 km/h 15.9 km/h 93 % 0 mm
04:29 10.1 °C 8.8 °C 1020.5 hPa NNE 20.4 km/h 10.8 km/h 92 % 0 mm
04:34 10.1 °C 8.7 °C 1020.5 hPa NNE 18.5 km/h 10.1 km/h 91 % 0 mm
04:39 10.1 °C 8.7 °C 1020.5 hPa NNE 14.8 km/h 11.4 km/h 91 % 0 mm
04:44 10.1 °C 8.7 °C 1020.5 hPa NNE 16.7 km/h 10 km/h 91 % 0 mm
04:49 10.2 °C 8.6 °C 1020.5 hPa NNE 13 km/h 9.8 km/h 90 % 0 mm
04:54 10.2 °C 8.7 °C 1020.2 hPa NNE 13 km/h 10.6 km/h 90 % 0 mm
04:59 10.3 °C 8.7 °C 1020.2 hPa NNE 20.4 km/h 13.5 km/h 90 % 0 mm
05:04 10.3 °C 8.8 °C 1020.2 hPa NNE 22.2 km/h 13.8 km/h 90 % 0 mm
05:09 10.3 °C 8.6 °C 1020.2 hPa NNE 22.5 km/h 11.3 km/h 89 % 0 mm
05:14 10.3 °C 8.6 °C 1019.9 hPa NNE 14.8 km/h 10.6 km/h 89 % 0 mm
05:19 10.3 °C 8.6 °C 1019.9 hPa NNE 24.1 km/h 15.9 km/h 89 % 0 mm
05:24 10.3 °C 8.6 °C 1019.9 hPa NNE 18.5 km/h 15.1 km/h 89 % 0 mm
05:29 10.2 °C 8.5 °C 1019.9 hPa NNE 25.9 km/h 16.4 km/h 89 % 0 mm
05:34 10.2 °C 8.5 °C 1019.9 hPa NNE 24.1 km/h 15.1 km/h 89 % 0 mm
05:39 10.2 °C 8.4 °C 1019.9 hPa NNE 18.5 km/h 10.9 km/h 89 % 0 mm
05:44 10.1 °C 8.4 °C 1019.9 hPa NNE 20.4 km/h 14.2 km/h 89 % 0 mm
05:49 10.1 °C 8.3 °C 1019.9 hPa NNE 13 km/h 11.7 km/h 89 % 0 mm
05:54 10.1 °C 8.3 °C 1019.9 hPa NNE 18.5 km/h 12.2 km/h 89 % 0 mm
05:59 10.1 °C 8.3 °C 1019.9 hPa NNE 18.5 km/h 9.3 km/h 89 % 0 mm
06:04 10 °C 8.3 °C 1020.2 hPa NNE 13 km/h 7.4 km/h 89 % 0 mm
06:09 10 °C 8.3 °C 1020.2 hPa NNE 14.5 km/h 9.8 km/h 89 % 0 mm
06:14 10 °C 8.3 °C 1020.2 hPa NNE 9.3 km/h 5.8 km/h 89 % 0 mm
06:19 9.9 °C 8.2 °C 1020.2 hPa NNE 14.8 km/h 4.8 km/h 89 % 0 mm
06:24 9.9 °C 8.2 °C 1020.2 hPa NNE 11.1 km/h 6.6 km/h 89 % 0 mm
06:29 9.9 °C 8.2 °C 1020.2 hPa NNE 8 km/h 9.3 km/h 89 % 0 mm
06:34 9.9 °C 8.2 °C 1020.2 hPa NNE 13 km/h 5 km/h 89 % 0 mm
06:39 9.9 °C 8.2 °C 1020.2 hPa NNE 9.3 km/h 5.8 km/h 89 % 0 mm
06:44 9.9 °C 8.2 °C 1020.2 hPa NNE 9.7 km/h 6.9 km/h 89 % 0 mm
06:49 9.8 °C 7.9 °C 1020.2 hPa NNE 9.3 km/h 6 km/h 88 % 0 mm
06:54 9.8 °C 7.9 °C 1020.2 hPa NNE 14.8 km/h 5.6 km/h 88 % 0 mm
06:59 9.8 °C 7.9 °C 1020.2 hPa NNE 7.4 km/h 5.1 km/h 88 % 0 mm
07:04 9.7 °C 7.8 °C 1020.2 hPa NNE 9.3 km/h 6.4 km/h 88 % 0 mm
07:09 9.7 °C 7.8 °C 1020.2 hPa NNE 5.6 km/h 3.5 km/h 88 % 0 mm
07:14 9.6 °C 7.5 °C 1019.9 hPa NNE 7.4 km/h 4.2 km/h 87 % 0 mm
07:19 9.6 °C 7.7 °C 1020.2 hPa NNE 6.4 km/h 6.1 km/h 88 % 0 mm
07:24 9.5 °C 7.4 °C 1019.9 hPa NNE 5.6 km/h 2.1 km/h 87 % 0 mm
07:29 9.6 °C 7.6 °C 1019.9 hPa NNE 16.7 km/h 7.1 km/h 87 % 0 mm
07:34 9.7 °C 7.7 °C 1019.9 hPa NNE 11.1 km/h 6.9 km/h 87 % 0 mm
07:39 9.8 °C 7.7 °C 1019.9 hPa NE 11.3 km/h 13.7 km/h 87 % 0 mm
07:44 9.9 °C 7.8 °C 1019.9 hPa NNE 18.5 km/h 8.5 km/h 87 % 0 mm
07:49 9.9 °C 7.8 °C 1019.9 hPa NNE 18.5 km/h 8.4 km/h 87 % 0 mm
07:54 9.9 °C 7.8 °C 1019.9 hPa NNE 9.3 km/h 6.4 km/h 87 % 0 mm
07:59 9.8 °C 7.8 °C 1019.9 hPa NNE 14.5 km/h 10.1 km/h 87 % 0 mm
08:04 9.8 °C 7.8 °C 1019.9 hPa NNE 16.7 km/h 12.1 km/h 87 % 0 mm
08:09 9.8 °C 7.7 °C 1019.9 hPa NNE 20.4 km/h 13.2 km/h 87 % 0 mm
08:14 9.8 °C 7.7 °C 1019.9 hPa NNE 18.5 km/h 10.6 km/h 87 % 0 mm
08:19 9.8 °C 7.6 °C 1019.9 hPa NNE 13 km/h 8.5 km/h 86 % 0 mm
08:24 9.8 °C 7.6 °C 1019.9 hPa NE 14.8 km/h 16.9 km/h 86 % 0 mm
08:29 9.9 °C 7.7 °C 1019.5 hPa NNE 18.5 km/h 15.6 km/h 86 % 0 mm
08:34 9.9 °C 7.5 °C 1019.5 hPa NE 20.4 km/h 13.4 km/h 85 % 0 mm
08:39 9.9 °C 7.6 °C 1019.5 hPa NE 20.4 km/h 13.5 km/h 85 % 0 mm
08:44 9.9 °C 7.4 °C 1019.5 hPa NNE 24.1 km/h 24.1 km/h 84 % 0 mm
08:49 10 °C 7.4 °C 1019.5 hPa NNE 18.5 km/h 15.8 km/h 84 % 0 mm
08:54 10.1 °C 7.5 °C 1019.5 hPa NNE 22.2 km/h 13.5 km/h 84 % 0 mm
08:59 10.1 °C 7.6 °C 1019.5 hPa NNE 16.7 km/h 15 km/h 84 % 0 mm
09:04 10.2 °C 7.6 °C 1019.5 hPa NNE 20.4 km/h 7.7 km/h 84 % 0 mm
09:09 10.3 °C 7.5 °C 1019.5 hPa NE 22.2 km/h 12.9 km/h 83 % 0 mm
09:14 10.3 °C 7.5 °C 1019.5 hPa NNE 24.1 km/h 10 km/h 83 % 0 mm
09:19 10.2 °C 7.4 °C 1019.5 hPa NNE 20.4 km/h 16.3 km/h 83 % 0 mm
09:24 10.2 °C 7.4 °C 1019.5 hPa NNE 17.7 km/h 11.7 km/h 83 % 0 mm
09:29 10.1 °C 7.3 °C 1019.2 hPa NNE 16.7 km/h 11.4 km/h 83 % 0 mm
09:34 10.1 °C 7.6 °C 1019.2 hPa NNE 20.9 km/h 14 km/h 84 % 0 mm
09:39 10.1 °C 7.6 °C 1019.2 hPa NNE 13 km/h 11.4 km/h 84 % 0 mm
09:44 10.1 °C 7.3 °C 1018.8 hPa NNE 22.5 km/h 15.6 km/h 83 % 0 mm
09:49 10.1 °C 7.3 °C 1019.2 hPa NNE 29.6 km/h 14.6 km/h 83 % 0 mm
09:54 10.1 °C 7.6 °C 1018.8 hPa NNE 22.2 km/h 15 km/h 84 % 0 mm
09:59 10.2 °C 7.4 °C 1018.8 hPa NNE 33.3 km/h 16.9 km/h 83 % 0 mm
10:04 10.2 °C 7.4 °C 1018.8 hPa ENE 22.2 km/h 13.5 km/h 83 % 0 mm
10:09 10.3 °C 7.6 °C 1018.8 hPa NNE 25.9 km/h 12.1 km/h 83 % 0 mm
10:14 10.4 °C 7.4 °C 1018.8 hPa NNE 22.2 km/h 18.8 km/h 82 % 0 mm
10:19 10.5 °C 7.6 °C 1018.8 hPa NNE 25.9 km/h 13.8 km/h 82 % 0 mm
10:24 10.5 °C 7.6 °C 1018.8 hPa NNE 29 km/h 21.2 km/h 82 % 0 mm
10:29 10.6 °C 7.7 °C 1018.8 hPa NNE 25.9 km/h 13.5 km/h 82 % 0 mm
10:34 10.7 °C 7.7 °C 1018.5 hPa NNE 27.8 km/h 19 km/h 82 % 0 mm
10:39 10.7 °C 7.6 °C 1018.5 hPa NNE 27.8 km/h 15 km/h 81 % 0 mm
10:44 10.8 °C 7.7 °C 1018.5 hPa North 22.2 km/h 13.8 km/h 81 % 0 mm
10:49 10.8 °C 7.7 °C 1018.5 hPa NNE 25.9 km/h 16.4 km/h 81 % 0 mm
10:54 10.9 °C 7.8 °C 1018.2 hPa NE 31.5 km/h 16.1 km/h 81 % 0 mm
10:59 11.1 °C 7.9 °C 1018.2 hPa NNE 22.5 km/h 14.5 km/h 81 % 0 mm
11:04 11.1 °C 7.7 °C 1018.2 hPa NNE 31.5 km/h 15.1 km/h 80 % 0 mm
11:09 11 °C 7.7 °C 1018.2 hPa NNE 27.8 km/h 19 km/h 80 % 0 mm
11:14 11 °C 7.7 °C 1017.8 hPa NNE 22.2 km/h 14.2 km/h 80 % 0 mm
11:19 11.2 °C 7.8 °C 1017.8 hPa NE 22.2 km/h 15.4 km/h 80 % 0 mm
11:24 11.2 °C 7.7 °C 1017.8 hPa NE 31.5 km/h 15.6 km/h 79 % 0 mm
11:29 11.2 °C 7.9 °C 1017.5 hPa North 24.1 km/h 12.2 km/h 80 % 0 mm
11:34 11.3 °C 7.8 °C 1017.5 hPa NNE 22.2 km/h 11.3 km/h 79 % 0 mm
11:39 11.4 °C 8.1 °C 1017.2 hPa NNE 20.4 km/h 11.6 km/h 80 % 0 mm
11:44 11.4 °C 7.9 °C 1017.2 hPa NNE 22.2 km/h 9.8 km/h 79 % 0 mm
11:49 11.4 °C 7.9 °C 1016.8 hPa NNE 20.4 km/h 10.8 km/h 79 % 0 mm
11:54 11.5 °C 8 °C 1016.5 hPa NE 24.1 km/h 12.4 km/h 79 % 0 mm
11:59 11.8 °C 8.3 °C 1016.5 hPa NE 20.4 km/h 19.6 km/h 79 % 0 mm
12:04 11.9 °C 8.2 °C 1016.5 hPa NNE 27.8 km/h 17.5 km/h 78 % 0 mm
12:09 11.9 °C 8 °C 1016.5 hPa NNE 31.5 km/h 18.8 km/h 77 % 0 mm
12:14 11.8 °C 7.9 °C 1016.5 hPa NNE 29.6 km/h 14.8 km/h 77 % 0 mm
12:19 11.8 °C 7.9 °C 1016.5 hPa NNE 25.9 km/h 16.9 km/h 77 % 0 mm
12:24 11.8 °C 8.1 °C 1016.5 hPa NNE 22.2 km/h 16.7 km/h 78 % 0 mm
12:29 11.9 °C 8.1 °C 1016.5 hPa NNE 31.5 km/h 19.5 km/h 77 % 0 mm
12:34 11.8 °C 7.9 °C 1016.1 hPa NE 27.8 km/h 19.2 km/h 77 % 0 mm
12:39 11.9 °C 8 °C 1015.8 hPa NE 25.9 km/h 13.8 km/h 77 % 0 mm
12:44 12.1 °C 8.4 °C 1015.8 hPa NNE 22.5 km/h 16.7 km/h 78 % 0 mm
12:49 12.3 °C 8.2 °C 1015.8 hPa NNE 27.8 km/h 10.8 km/h 76 % 0 mm
12:54 12.6 °C 8.5 °C 1015.8 hPa NNE 27.8 km/h 13.5 km/h 76 % 0 mm
12:59 12.9 °C 8.6 °C 1015.5 hPa NNE 27.8 km/h 22.7 km/h 75 % 0 mm
13:04 12.9 °C 8.4 °C 1015.5 hPa ENE 18.5 km/h 9.7 km/h 74 % 0 mm
13:09 12.7 °C 8.4 °C 1015.5 hPa NNE 24.1 km/h 15.4 km/h 75 % 0 mm
13:14 12.6 °C 8.5 °C 1015.1 hPa NNE 16.7 km/h 10.8 km/h 76 % 0 mm
13:19 12.6 °C 8.5 °C 1015.1 hPa NNE 16.7 km/h 11.4 km/h 76 % 0 mm
13:24 12.7 °C 8.6 °C 1014.8 hPa NE 24.1 km/h 18.3 km/h 76 % 0 mm
13:29 12.9 °C 8.8 °C 1014.8 hPa NE 22.2 km/h 13.4 km/h 76 % 0 mm
13:34 13.2 °C 8.8 °C 1014.8 hPa NNE 20.4 km/h 14 km/h 75 % 0 mm
13:39 13.2 °C 8.6 °C 1014.8 hPa NE 27.8 km/h 13.8 km/h 74 % 0 mm
13:44 13.1 °C 8.7 °C 1014.4 hPa NNE 25.9 km/h 15.4 km/h 75 % 0 mm
13:49 12.8 °C 8.7 °C 1014.4 hPa NNE 20.4 km/h 14.6 km/h 76 % 0 mm
13:54 12.8 °C 8.7 °C 1014.1 hPa NNE 22.2 km/h 16.4 km/h 76 % 0 mm
13:59 12.7 °C 8.6 °C 1014.1 hPa NNE 22.2 km/h 10.1 km/h 76 % 0 mm
14:04 12.7 °C 8.7 °C 1013.8 hPa NNE 22.2 km/h 10.5 km/h 77 % 0 mm
14:09 12.7 °C 8.8 °C 1013.8 hPa NE 22.2 km/h 11.3 km/h 77 % 0 mm
14:14 12.9 °C 8.8 °C 1013.8 hPa NE 22.2 km/h 12.6 km/h 76 % 0 mm
14:19 12.9 °C 8.8 °C 1013.8 hPa NNE 27.8 km/h 14.3 km/h 76 % 0 mm
14:24 12.8 °C 8.7 °C 1013.4 hPa NNE 16.1 km/h 9 km/h 76 % 0 mm
14:29 12.9 °C 8.8 °C 1013.4 hPa NNE 20.9 km/h 14.3 km/h 76 % 0 mm
14:34 12.9 °C 8.8 °C 1013.4 hPa NNE 25.7 km/h 15.4 km/h 76 % 0 mm
14:39 12.9 °C 8.8 °C 1013.4 hPa North 29.6 km/h 13.2 km/h 76 % 0 mm
14:44 12.9 °C 8.8 °C 1013.4 hPa NNE 25.9 km/h 19.6 km/h 76 % 0 mm
14:49 12.9 °C 8.8 °C 1013.4 hPa NNE 27.8 km/h 17.9 km/h 76 % 0 mm
14:54 12.9 °C 8.8 °C 1013.1 hPa NNE 22.2 km/h 20.3 km/h 76 % 0 mm
14:59 12.8 °C 8.7 °C 1013.1 hPa NNE 22.2 km/h 18.5 km/h 76 % 0 mm
15:04 12.8 °C 8.7 °C 1013.1 hPa NE 18.5 km/h 11.6 km/h 76 % 0 mm
15:09 12.8 °C 8.9 °C 1012.8 hPa NNE 18.5 km/h 11.6 km/h 77 % 0 mm
15:14 12.7 °C 9.1 °C 1012.8 hPa NNE 16.7 km/h 12.7 km/h 79 % 0 mm
15:19 12.6 °C 9.2 °C 1012.8 hPa NE 16.7 km/h 10.3 km/h 80 % 0 mm
15:24 12.6 °C 9.2 °C 1012.4 hPa NNE 29.6 km/h 9.8 km/h 80 % 0 mm
15:29 12.5 °C 9.2 °C 1012.4 hPa NNE 27.8 km/h 13.7 km/h 80 % 0 mm
15:34 12.6 °C 9.2 °C 1012.4 hPa North 25.7 km/h 14.3 km/h 80 % 0 mm
15:39 12.6 °C 9.1 °C 1012.4 hPa NNE 20.4 km/h 16.7 km/h 79 % 0 mm
15:44 12.7 °C 8.9 °C 1012.4 hPa NE 16.7 km/h 16.3 km/h 78 % 0 mm
15:49 12.7 °C 8.9 °C 1012.1 hPa North 16.7 km/h 10.1 km/h 78 % 0 mm
15:54 12.7 °C 8.9 °C 1012.4 hPa North 25.9 km/h 18.8 km/h 78 % 0 mm
15:59 12.7 °C 8.9 °C 1012.4 hPa NNE 29.6 km/h 15.3 km/h 78 % 0 mm
16:04 12.8 °C 9.1 °C 1012.1 hPa NNE 25.9 km/h 15 km/h 78 % 0 mm
16:09 12.8 °C 9.1 °C 1011.7 hPa NNE 20.4 km/h 14.5 km/h 78 % 0 mm
16:14 12.8 °C 8.8 °C 1011.7 hPa NNE 20.9 km/h 13.7 km/h 77 % 0 mm
16:19 12.7 °C 9 °C 1011.7 hPa North 18.5 km/h 11.3 km/h 78 % 0 mm
16:24 12.7 °C 9 °C 1011.4 hPa NE 29 km/h 16.7 km/h 78 % 0 mm
16:29 12.7 °C 8.7 °C 1011.4 hPa NNE 31.5 km/h 21.6 km/h 77 % 0 mm
16:34 12.6 °C 8.7 °C 1011.1 hPa NE 24.1 km/h 14.2 km/h 77 % 0 mm
16:39 12.6 °C 8.8 °C 1011.1 hPa North 18.5 km/h 17.2 km/h 78 % 0 mm
16:44 12.5 °C 8.8 °C 1011.1 hPa NNE 22.2 km/h 19.8 km/h 78 % 0 mm
16:49 12.4 °C 8.7 °C 1011.1 hPa NNE 27.8 km/h 18.3 km/h 78 % 0 mm
16:54 12.4 °C 8.7 °C 1011.1 hPa NNE 31.5 km/h 17.4 km/h 78 % 0 mm
16:59 12.4 °C 8.7 °C 1010.7 hPa NNE 31.5 km/h 16.4 km/h 78 % 0 mm
17:04 12.4 °C 8.7 °C 1010.7 hPa NNE 29.6 km/h 20 km/h 78 % 0 mm
17:09 12.4 °C 8.7 °C 1010.4 hPa NNE 31.5 km/h 16.7 km/h 78 % 0 mm
17:14 12.3 °C 8.7 °C 1010.4 hPa NNE 27.8 km/h 17.9 km/h 79 % 0 mm
17:19 12.2 °C 8.7 °C 1010.4 hPa NE 16.1 km/h 21.9 km/h 79 % 0 mm
17:24 12.2 °C 8.7 °C 1010.4 hPa NNE 27.8 km/h 19.5 km/h 79 % 0 mm
17:29 12.2 °C 8.7 °C 1010 hPa NNE 25.9 km/h 21.2 km/h 79 % 0 mm
17:34 12.2 °C 8.7 °C 1010 hPa NNE 18.5 km/h 14.3 km/h 79 % 0 mm
17:39 12.2 °C 8.7 °C 1010 hPa NNE 18.5 km/h 12.4 km/h 79 % 0 mm
17:44 12.3 °C 8.8 °C 1010 hPa North 29 km/h 17.1 km/h 79 % 0 mm
17:49 12.4 °C 8.8 °C 1010 hPa NNE 18.5 km/h 15 km/h 79 % 0 mm
17:54 12.4 °C 8.8 °C 1009.7 hPa NE 24.1 km/h 19.2 km/h 79 % 0 mm
17:59 12.4 °C 8.8 °C 1009.7 hPa NNE 18.5 km/h 15 km/h 79 % 0 mm
18:04 12.4 °C 9.1 °C 1010.4 hPa NNE 27.8 km/h 11.9 km/h 80 % 0 mm
18:09 12.4 °C 9.1 °C 1010.7 hPa NNE 25.9 km/h 20.4 km/h 80 % 0 mm
18:14 12.4 °C 9.3 °C 1010.4 hPa NNE 16.7 km/h 13.4 km/h 81 % 0 mm
18:19 12.2 °C 9.4 °C 1009.7 hPa NE 18.5 km/h 9.2 km/h 83 % 0.76 mm
18:24 11.9 °C 9.3 °C 1009.7 hPa NNE 18.5 km/h 15.4 km/h 84 % 0.76 mm
18:29 11.7 °C 9.4 °C 1009.7 hPa NNE 22.2 km/h 10.3 km/h 86 % 0.76 mm
18:34 11.6 °C 9.3 °C 1009.7 hPa NE 22.2 km/h 19.5 km/h 86 % 0.76 mm
18:39 11.6 °C 9.4 °C 1009.7 hPa NNE 18.5 km/h 14.5 km/h 87 % 0.76 mm
18:44 11.6 °C 9.5 °C 1009.4 hPa NE 37 km/h 15.1 km/h 87 % 0.76 mm
18:49 11.7 °C 9.4 °C 1009.7 hPa NNE 27.4 km/h 16.4 km/h 86 % 0.76 mm
18:54 11.8 °C 9.5 °C 1009.4 hPa NNE 27.8 km/h 19.6 km/h 86 % 0.76 mm
18:59 11.7 °C 9.4 °C 1009.4 hPa NE 25.9 km/h 13.4 km/h 86 % 0.76 mm
19:04 11.7 °C 9.4 °C 1009.4 hPa North 22.5 km/h 17.2 km/h 86 % 0.76 mm
19:09 11.7 °C 9.6 °C 1009.4 hPa North 18.5 km/h 12.9 km/h 87 % 0.76 mm
19:14 11.8 °C 9.5 °C 1009.4 hPa NNE 20.4 km/h 14.5 km/h 86 % 0.76 mm
19:19 11.8 °C 9.5 °C 1009.4 hPa NNE 20.4 km/h 10.3 km/h 86 % 0 mm
19:24 11.8 °C 9.4 °C 1009 hPa NNE 27.8 km/h 11.4 km/h 85 % 0 mm
19:29 11.9 °C 9.4 °C 1009 hPa NE 20.4 km/h 13.8 km/h 85 % 0 mm
19:34 11.9 °C 9.3 °C 1009.4 hPa NE 29.6 km/h 21.6 km/h 84 % 0 mm
19:39 12.1 °C 9.1 °C 1009 hPa ENE 46.7 km/h 22.4 km/h 82 % 0 mm
19:44 12.2 °C 9.2 °C 1009.4 hPa East 22.2 km/h 13.5 km/h 82 % 0 mm
19:49 12.2 °C 9.2 °C 1009 hPa ENE 20.4 km/h 17.5 km/h 82 % 0 mm
19:54 12.2 °C 9.2 °C 1009 hPa NNE 16.7 km/h 13.8 km/h 82 % 0 mm
19:59 12.3 °C 9.1 °C 1009 hPa NE 31.5 km/h 18 km/h 81 % 0 mm
20:04 12.4 °C 9.2 °C 1009 hPa East 32.2 km/h 20.6 km/h 81 % 0 mm
20:09 12.5 °C 9.2 °C 1008.7 hPa NE 46.3 km/h 24 km/h 80 % 0 mm
20:14 12.6 °C 9.2 °C 1008.7 hPa NNE 44.4 km/h 22.7 km/h 80 % 0 mm
20:19 12.6 °C 9.2 °C 1008.4 hPa NE 31.5 km/h 23.5 km/h 80 % 0 mm
20:24 12.5 °C 9.2 °C 1008.7 hPa NNE 33.3 km/h 23 km/h 80 % 0 mm
20:29 12.4 °C 9.2 °C 1008.7 hPa NE 24.1 km/h 18.3 km/h 81 % 0 mm
20:34 12.3 °C 9.3 °C 1008.7 hPa NNE 31.5 km/h 20.3 km/h 82 % 0 mm
20:39 12.2 °C 9.2 °C 1008.7 hPa NE 40.7 km/h 21.4 km/h 82 % 0 mm
20:44 12.2 °C 9.2 °C 1008.7 hPa NNE 27.8 km/h 18.5 km/h 82 % 0 mm
20:49 12.1 °C 9.1 °C 1008.7 hPa North 31.5 km/h 11.1 km/h 82 % 0 mm
20:54 12.1 °C 9.1 °C 1009 hPa NNE 35.2 km/h 17.5 km/h 82 % 0 mm
20:59 12.1 °C 9.3 °C 1009 hPa NNE 40.2 km/h 27.5 km/h 83 % 0 mm
21:04 12 °C 9.4 °C 1009.4 hPa NNE 38.9 km/h 20.3 km/h 84 % 2.03 mm
21:09 11.6 °C 9.3 °C 1009 hPa NNE 29.6 km/h 12.4 km/h 86 % 3.3 mm
21:14 11.3 °C 9.2 °C 1009.4 hPa North 35.2 km/h 17.5 km/h 87 % 3.56 mm
21:19 11.2 °C 9.3 °C 1009.4 hPa NNE 29.6 km/h 20 km/h 88 % 4.06 mm
21:24 11.1 °C 9.4 °C 1009 hPa NNE 20.4 km/h 16.9 km/h 89 % 4.57 mm
21:29 11 °C 9.3 °C 1009 hPa NNE 25.9 km/h 12.6 km/h 89 % 5.08 mm
21:34 10.9 °C 9.4 °C 1008.7 hPa ENE 31.5 km/h 22.2 km/h 90 % 5.08 mm
21:39 10.9 °C 9.4 °C 1008.7 hPa NE 31.5 km/h 17.7 km/h 90 % 5.59 mm
21:44 10.9 °C 9.6 °C 1009 hPa NNE 31.5 km/h 15.3 km/h 91 % 5.84 mm
21:49 11 °C 9.6 °C 1009 hPa NE 31.5 km/h 26.4 km/h 91 % 6.1 mm
21:54 10.9 °C 9.6 °C 1009 hPa NNE 31.5 km/h 16.3 km/h 91 % 6.86 mm
21:59 10.9 °C 9.5 °C 1009 hPa NNE 29.6 km/h 19 km/h 91 % 7.11 mm
22:04 10.8 °C 9.4 °C 1009.4 hPa North 22.2 km/h 11.4 km/h 91 % 5.59 mm
22:09 10.8 °C 9.6 °C 1009.4 hPa North 29.6 km/h 19.5 km/h 92 % 5.59 mm
22:14 10.7 °C 9.4 °C 1009.7 hPa NW 18.5 km/h 10.9 km/h 92 % 5.59 mm
22:19 10.6 °C 9.3 °C 1009.4 hPa North 12.9 km/h 7.9 km/h 92 % 5.08 mm
22:24 10.4 °C 9.2 °C 1009.4 hPa North 18.5 km/h 9.3 km/h 92 % 5.08 mm
22:29 10.2 °C 9 °C 1009.4 hPa North 13 km/h 8 km/h 92 % 5.08 mm
22:34 10 °C 8.8 °C 1009.4 hPa North 11.1 km/h 9.3 km/h 92 % 5.08 mm
22:39 9.8 °C 8.8 °C 1009.4 hPa North 16.7 km/h 10.3 km/h 93 % 5.08 mm
22:44 9.7 °C 8.6 °C 1009 hPa North 13 km/h 8.4 km/h 93 % 5.33 mm
22:49 9.6 °C 8.5 °C 1009 hPa North 14.8 km/h 6.4 km/h 93 % 5.08 mm
22:54 9.5 °C 8.4 °C 1009 hPa North 9.7 km/h 8.4 km/h 93 % 4.83 mm
22:59 9.4 °C 8.3 °C 1009 hPa North 14.8 km/h 9.8 km/h 93 % 4.57 mm
23:04 9.3 °C 8.3 °C 1008.7 hPa North 9.3 km/h 6.9 km/h 93 % 4.32 mm
23:09 9.2 °C 8.2 °C 1008.4 hPa North 13 km/h 8.2 km/h 93 % 3.3 mm
23:14 9.2 °C 8.1 °C 1008.4 hPa NNE 14.8 km/h 11.7 km/h 93 % 3.05 mm
23:19 9.2 °C 8.3 °C 1008 hPa NNE 13 km/h 10.5 km/h 94 % 3.05 mm
23:24 9.1 °C 8.2 °C 1007 hPa NE 18.5 km/h 8.5 km/h 94 % 3.3 mm
23:29 9.1 °C 8.2 °C 1007 hPa NE 18.5 km/h 8.9 km/h 94 % 2.79 mm
23:34 9.2 °C 8.3 °C 1007 hPa NE 11.3 km/h 10.3 km/h 94 % 2.29 mm
23:39 9.2 °C 8.3 °C 1007.3 hPa NE 12.9 km/h 10.1 km/h 94 % 2.03 mm
23:44 9.2 °C 8.3 °C 1007.7 hPa North 18.5 km/h 9.2 km/h 94 % 1.52 mm
23:49 9.2 °C 8.3 °C 1007.7 hPa North 20.4 km/h 11.7 km/h 94 % 1.52 mm
23:54 9.2 °C 8.1 °C 1007.7 hPa NNE 18.5 km/h 11.3 km/h 93 % 1.27 mm
23:59 9.1 °C 8.2 °C 1007.7 hPa NNE 20.9 km/h 12.7 km/h 94 % 1.02 mm
Ararat Weather
Compliments of Weather Underground - 2.25 mb
Click here to send mail.


ABOUT

Live weather data from Ararat, Victoria, Australia, 3377
Data uploaded from Cumulus every 5 minutes to Weather Underground.
This site then downloads the raw data for formatting and display.
Metric and imperial data can be displayed. Graphs and historical data available.
Includes Sun and Moon times and rain image live from BOM.

Check out Ararat Weather on Facebook, Twitter and Google +

Help support ongoing costs by checking out the ads





Follow @AraratWeather